sensor_id;sensor_type;location;lat;lon;timestamp;pressure;altitude;pressure_sealevel;temperature;humidity
6435;BME280;3250;42.694;23.278;2023-03-15T00:01:06;93863.44;;;6.87;55.27
6435;BME280;3250;42.694;23.278;2023-03-15T00:03:32;93872.75;;;6.83;56.39
6435;BME280;3250;42.694;23.278;2023-03-15T00:06:02;93868.13;;;6.78;55.67
6435;BME280;3250;42.694;23.278;2023-03-15T00:08:28;93861.94;;;6.73;56.63
6435;BME280;3250;42.694;23.278;2023-03-15T00:10:54;93859.91;;;6.75;57.22
6435;BME280;3250;42.694;23.278;2023-03-15T00:13:19;93861.50;;;6.76;57.45
6435;BME280;3250;42.694;23.278;2023-03-15T00:15:47;93863.97;;;6.71;56.68
6435;BME280;3250;42.694;23.278;2023-03-15T00:18:13;93876.63;;;6.74;56.04
6435;BME280;3250;42.694;23.278;2023-03-15T00:20:39;93862.94;;;6.72;56.10
6435;BME280;3250;42.694;23.278;2023-03-15T00:23:05;93865.34;;;6.73;56.83
6435;BME280;3250;42.694;23.278;2023-03-15T00:25:30;93863.75;;;6.72;55.55
6435;BME280;3250;42.694;23.278;2023-03-15T00:27:55;93828.88;;;6.54;55.53
6435;BME280;3250;42.694;23.278;2023-03-15T00:30:21;93843.03;;;6.71;56.24
6435;BME280;3250;42.694;23.278;2023-03-15T00:32:46;93835.41;;;6.69;55.60
6435;BME280;3250;42.694;23.278;2023-03-15T00:35:12;93851.81;;;6.83;54.75
6435;BME280;3250;42.694;23.278;2023-03-15T00:37:38;93829.38;;;6.69;55.32
6435;BME280;3250;42.694;23.278;2023-03-15T00:40:04;93849.97;;;6.83;55.30
6435;BME280;3250;42.694;23.278;2023-03-15T00:42:31;93795.91;;;6.53;56.16
6435;BME280;3250;42.694;23.278;2023-03-15T00:44:58;93838.34;;;6.79;57.26
6435;BME280;3250;42.694;23.278;2023-03-15T00:47:24;93838.97;;;6.75;56.11
6435;BME280;3250;42.694;23.278;2023-03-15T00:49:50;93841.97;;;6.78;56.31
6435;BME280;3250;42.694;23.278;2023-03-15T00:52:16;93820.25;;;6.78;56.76
6435;BME280;3250;42.694;23.278;2023-03-15T00:54:42;93828.00;;;6.91;57.53
6435;BME280;3250;42.694;23.278;2023-03-15T00:57:08;93823.72;;;6.97;57.14
6435;BME280;3250;42.694;23.278;2023-03-15T00:59:34;93806.31;;;6.84;56.83
6435;BME280;3250;42.694;23.278;2023-03-15T01:02:00;93829.91;;;7.02;57.00
6435;BME280;3250;42.694;23.278;2023-03-15T01:04:26;93824.25;;;7.05;55.67
6435;BME280;3250;42.694;23.278;2023-03-15T01:06:51;93777.59;;;6.77;55.84
6435;BME280;3250;42.694;23.278;2023-03-15T01:09:17;93815.59;;;7.05;55.76
6435;BME280;3250;42.694;23.278;2023-03-15T01:11:42;93815.53;;;7.11;55.45
6435;BME280;3250;42.694;23.278;2023-03-15T01:14:08;93813.09;;;7.16;55.48
6435;BME280;3250;42.694;23.278;2023-03-15T01:16:35;93790.84;;;7.07;55.21
6435;BME280;3250;42.694;23.278;2023-03-15T01:19:00;93812.38;;;7.28;55.08
6435;BME280;3250;42.694;23.278;2023-03-15T01:21:25;93807.94;;;7.28;56.41
6435;BME280;3250;42.694;23.278;2023-03-15T01:23:52;93791.72;;;7.19;56.57
6435;BME280;3250;42.694;23.278;2023-03-15T01:26:18;93797.25;;;7.30;56.26
6435;BME280;3250;42.694;23.278;2023-03-15T01:28:45;93781.03;;;7.21;56.46
6435;BME280;3250;42.694;23.278;2023-03-15T01:31:17;93789.63;;;7.28;56.20
6435;BME280;3250;42.694;23.278;2023-03-15T01:33:43;93790.00;;;7.32;55.53
6435;BME280;3250;42.694;23.278;2023-03-15T01:36:10;93793.03;;;7.29;55.94
6435;BME280;3250;42.694;23.278;2023-03-15T01:38:36;93790.28;;;7.24;56.20
6435;BME280;3250;42.694;23.278;2023-03-15T01:41:01;93773.41;;;7.19;56.38
6435;BME280;3250;42.694;23.278;2023-03-15T01:43:29;93777.19;;;7.24;56.15
6435;BME280;3250;42.694;23.278;2023-03-15T01:51:00;93774.94;;;7.09;57.05
6435;BME280;3250;42.694;23.278;2023-03-15T01:53:29;93754.50;;;6.99;56.97
6435;BME280;3250;42.694;23.278;2023-03-15T01:55:56;93760.25;;;7.08;57.93
6435;BME280;3250;42.694;23.278;2023-03-15T01:58:24;93763.66;;;7.08;58.56
6435;BME280;3250;42.694;23.278;2023-03-15T02:00:51;93756.81;;;7.07;58.01
6435;BME280;3250;42.694;23.278;2023-03-15T02:03:24;93754.63;;;7.04;57.90
6435;BME280;3250;42.694;23.278;2023-03-15T02:05:53;93746.78;;;7.04;58.30
6435;BME280;3250;42.694;23.278;2023-03-15T02:08:22;93739.34;;;7.01;58.21
6435;BME280;3250;42.694;23.278;2023-03-15T02:10:51;93722.59;;;6.91;58.80
6435;BME280;3250;42.694;23.278;2023-03-15T02:13:20;93741.75;;;7.03;58.24
6435;BME280;3250;42.694;23.278;2023-03-15T02:15:48;93737.34;;;7.03;58.07
6435;BME280;3250;42.694;23.278;2023-03-15T02:18:15;93729.28;;;7.05;57.99
6435;BME280;3250;42.694;23.278;2023-03-15T02:23:25;93725.19;;;6.91;58.01
6435;BME280;3250;42.694;23.278;2023-03-15T02:28:38;93726.81;;;6.67;60.51
6435;BME280;3250;42.694;23.278;2023-03-15T02:31:04;93719.41;;;6.64;60.34
6435;BME280;3250;42.694;23.278;2023-03-15T02:33:44;93727.06;;;6.59;60.55
6435;BME280;3250;42.694;23.278;2023-03-15T02:36:25;93731.56;;;6.52;61.17
6435;BME280;3250;42.694;23.278;2023-03-15T02:38:52;93725.13;;;6.54;61.23
6435;BME280;3250;42.694;23.278;2023-03-15T02:43:53;93728.41;;;6.43;61.66
6435;BME280;3250;42.694;23.278;2023-03-15T02:46:20;93721.16;;;6.45;61.37
6435;BME280;3250;42.694;23.278;2023-03-15T02:48:46;93720.16;;;6.46;61.26
6435;BME280;3250;42.694;23.278;2023-03-15T02:51:19;93720.38;;;6.44;60.23
6435;BME280;3250;42.694;23.278;2023-03-15T02:53:45;93717.00;;;6.37;60.36
6435;BME280;3250;42.694;23.278;2023-03-15T02:56:11;93716.41;;;6.35;60.23
6435;BME280;3250;42.694;23.278;2023-03-15T02:58:38;93713.38;;;6.38;60.29
6435;BME280;3250;42.694;23.278;2023-03-15T03:01:04;93703.75;;;6.39;60.01
6435;BME280;3250;42.694;23.278;2023-03-15T03:03:29;93699.94;;;6.35;59.69
6435;BME280;3250;42.694;23.278;2023-03-15T03:05:54;93704.75;;;6.38;59.66
6435;BME280;3250;42.694;23.278;2023-03-15T03:08:20;93700.75;;;6.35;60.24
6435;BME280;3250;42.694;23.278;2023-03-15T03:10:45;93698.19;;;6.29;60.41
6435;BME280;3250;42.694;23.278;2023-03-15T03:13:11;93688.94;;;6.26;61.04
6435;BME280;3250;42.694;23.278;2023-03-15T03:15:36;93693.56;;;6.24;61.04
6435;BME280;3250;42.694;23.278;2023-03-15T03:18:02;93683.59;;;6.15;61.12
6435;BME280;3250;42.694;23.278;2023-03-15T03:20:27;93688.25;;;6.13;61.50
6435;BME280;3250;42.694;23.278;2023-03-15T03:22:53;93692.25;;;6.15;61.68
6435;BME280;3250;42.694;23.278;2023-03-15T03:25:20;93675.66;;;6.03;62.63
6435;BME280;3250;42.694;23.278;2023-03-15T03:27:46;93675.81;;;6.08;62.75
6435;BME280;3250;42.694;23.278;2023-03-15T03:30:12;93679.22;;;6.09;62.36
6435;BME280;3250;42.694;23.278;2023-03-15T03:32:39;93684.25;;;6.10;63.20
6435;BME280;3250;42.694;23.278;2023-03-15T03:35:05;93671.44;;;6.02;63.96
6435;BME280;3250;42.694;23.278;2023-03-15T03:37:30;93673.00;;;6.10;63.83
6435;BME280;3250;42.694;23.278;2023-03-15T03:39:57;93676.41;;;6.10;63.98
6435;BME280;3250;42.694;23.278;2023-03-15T03:42:22;93670.44;;;6.03;64.16
6435;BME280;3250;42.694;23.278;2023-03-15T03:44:48;93633.56;;;5.86;64.92
6435;BME280;3250;42.694;23.278;2023-03-15T03:47:14;93666.72;;;6.17;63.78
6435;BME280;3250;42.694;23.278;2023-03-15T03:49:40;93654.97;;;6.01;64.00
6435;BME280;3250;42.694;23.278;2023-03-15T03:52:05;93642.34;;;5.98;64.00
6435;BME280;3250;42.694;23.278;2023-03-15T03:54:31;93661.47;;;6.17;64.24
6435;BME280;3250;42.694;23.278;2023-03-15T03:56:56;93657.28;;;6.16;64.83
6435;BME280;3250;42.694;23.278;2023-03-15T03:59:22;93644.00;;;6.18;64.63
6435;BME280;3250;42.694;23.278;2023-03-15T04:01:47;93648.16;;;6.25;64.89
6435;BME280;3250;42.694;23.278;2023-03-15T04:04:13;93649.53;;;6.28;63.81
6435;BME280;3250;42.694;23.278;2023-03-15T04:06:41;93642.94;;;6.25;63.75
6435;BME280;3250;42.694;23.278;2023-03-15T04:09:11;93643.72;;;6.26;63.87
6435;BME280;3250;42.694;23.278;2023-03-15T04:11:40;93638.44;;;6.32;63.44
6435;BME280;3250;42.694;23.278;2023-03-15T04:14:10;93646.81;;;6.41;64.84
6435;BME280;3250;42.694;23.278;2023-03-15T04:16:36;93645.00;;;6.41;63.13
6435;BME280;3250;42.694;23.278;2023-03-15T04:19:02;93616.22;;;6.23;62.90
6435;BME280;3250;42.694;23.278;2023-03-15T04:21:27;93652.63;;;6.43;63.44
6435;BME280;3250;42.694;23.278;2023-03-15T04:23:59;93653.28;;;6.38;63.24
6435;BME280;3250;42.694;23.278;2023-03-15T04:26:25;93648.41;;;6.42;62.72
6435;BME280;3250;42.694;23.278;2023-03-15T04:28:55;93645.00;;;6.41;62.53
6435;BME280;3250;42.694;23.278;2023-03-15T04:31:22;93626.91;;;6.40;62.37
6435;BME280;3250;42.694;23.278;2023-03-15T04:33:52;93641.97;;;6.44;62.30
6435;BME280;3250;42.694;23.278;2023-03-15T04:36:18;93628.16;;;6.37;62.24
6435;BME280;3250;42.694;23.278;2023-03-15T04:38:44;93641.09;;;6.51;61.91
6435;BME280;3250;42.694;23.278;2023-03-15T04:41:11;93630.63;;;6.51;62.07
6435;BME280;3250;42.694;23.278;2023-03-15T04:43:38;93612.03;;;6.40;62.65
6435;BME280;3250;42.694;23.278;2023-03-15T04:46:03;93631.81;;;6.55;62.42
6435;BME280;3250;42.694;23.278;2023-03-15T04:48:29;93638.66;;;6.56;61.95
6435;BME280;3250;42.694;23.278;2023-03-15T04:50:55;93640.47;;;6.55;60.89
6435;BME280;3250;42.694;23.278;2023-03-15T04:53:21;93634.63;;;6.53;60.66
6435;BME280;3250;42.694;23.278;2023-03-15T04:55:46;93612.81;;;6.41;60.62
6435;BME280;3250;42.694;23.278;2023-03-15T04:58:12;93639.59;;;6.61;58.27
6435;BME280;3250;42.694;23.278;2023-03-15T05:00:37;93631.09;;;6.66;59.33
6435;BME280;3250;42.694;23.278;2023-03-15T05:03:03;93632.38;;;6.75;59.16
6435;BME280;3250;42.694;23.278;2023-03-15T05:05:28;93641.84;;;6.76;57.54
6435;BME280;3250;42.694;23.278;2023-03-15T05:07:56;93639.22;;;6.76;56.63
6435;BME280;3250;42.694;23.278;2023-03-15T05:10:21;93641.03;;;6.94;57.31
6435;BME280;3250;42.694;23.278;2023-03-15T05:12:47;93642.50;;;7.26;57.92
6435;BME280;3250;42.694;23.278;2023-03-15T05:15:12;93621.88;;;7.48;56.64
6435;BME280;3250;42.694;23.278;2023-03-15T05:17:38;93628.88;;;8.19;54.14
6435;BME280;3250;42.694;23.278;2023-03-15T05:20:03;93641.47;;;9.27;51.14
6435;BME280;3250;42.694;23.278;2023-03-15T05:22:36;93639.72;;;9.72;48.22
6435;BME280;3250;42.694;23.278;2023-03-15T05:25:01;93638.88;;;9.55;48.57
6435;BME280;3250;42.694;23.278;2023-03-15T05:27:27;93636.72;;;9.24;50.05
6435;BME280;3250;42.694;23.278;2023-03-15T05:29:53;93637.81;;;8.88;50.99
6435;BME280;3250;42.694;23.278;2023-03-15T05:32:18;93635.06;;;8.48;51.06
6435;BME280;3250;42.694;23.278;2023-03-15T05:34:44;93629.56;;;8.26;52.25
6435;BME280;3250;42.694;23.278;2023-03-15T05:37:09;93604.38;;;8.02;53.44
6435;BME280;3250;42.694;23.278;2023-03-15T05:39:36;93625.00;;;8.10;54.95
6435;BME280;3250;42.694;23.278;2023-03-15T05:42:02;93634.56;;;8.04;55.30
6435;BME280;3250;42.694;23.278;2023-03-15T05:44:27;93625.75;;;7.99;54.91
6435;BME280;3250;42.694;23.278;2023-03-15T05:46:53;93627.00;;;7.84;55.31
6435;BME280;3250;42.694;23.278;2023-03-15T05:49:18;93618.66;;;7.76;54.73
6435;BME280;3250;42.694;23.278;2023-03-15T05:51:43;93621.06;;;7.77;51.00
6435;BME280;3250;42.694;23.278;2023-03-15T05:54:09;93623.72;;;7.59;49.54
6435;BME280;3250;42.694;23.278;2023-03-15T05:56:35;93620.66;;;7.62;49.99
6435;BME280;3250;42.694;23.278;2023-03-15T05:59:00;93628.78;;;7.72;48.60
6435;BME280;3250;42.694;23.278;2023-03-15T06:01:27;93621.13;;;7.71;48.53
6435;BME280;3250;42.694;23.278;2023-03-15T06:03:52;93622.16;;;7.70;48.63
6435;BME280;3250;42.694;23.278;2023-03-15T06:06:18;93629.31;;;8.04;47.10
6435;BME280;3250;42.694;23.278;2023-03-15T06:08:43;93630.06;;;8.46;46.98
6435;BME280;3250;42.694;23.278;2023-03-15T06:11:08;93630.13;;;9.09;44.40
6435;BME280;3250;42.694;23.278;2023-03-15T06:13:34;93623.25;;;10.72;41.45
6435;BME280;3250;42.694;23.278;2023-03-15T06:15:59;93632.22;;;11.80;38.13
6435;BME280;3250;42.694;23.278;2023-03-15T06:18:25;93634.34;;;11.61;37.81
6435;BME280;3250;42.694;23.278;2023-03-15T06:20:50;93636.72;;;12.38;36.10
6435;BME280;3250;42.694;23.278;2023-03-15T06:23:15;93640.50;;;12.90;34.78
6435;BME280;3250;42.694;23.278;2023-03-15T06:25:41;93629.34;;;12.77;35.08
6435;BME280;3250;42.694;23.278;2023-03-15T06:28:06;93642.72;;;12.61;34.99
6435;BME280;3250;42.694;23.278;2023-03-15T06:30:32;93642.19;;;12.32;36.29
6435;BME280;3250;42.694;23.278;2023-03-15T06:32:57;93635.69;;;11.86;36.51
6435;BME280;3250;42.694;23.278;2023-03-15T06:35:23;93630.34;;;11.32;37.17
6435;BME280;3250;42.694;23.278;2023-03-15T06:37:48;93615.16;;;12.15;37.06
6435;BME280;3250;42.694;23.278;2023-03-15T06:40:13;93607.28;;;12.94;35.77
6435;BME280;3250;42.694;23.278;2023-03-15T06:42:39;93610.13;;;13.29;35.29
6435;BME280;3250;42.694;23.278;2023-03-15T06:45:06;93591.38;;;13.41;34.26
6435;BME280;3250;42.694;23.278;2023-03-15T06:47:32;93620.91;;;13.95;34.71
6435;BME280;3250;42.694;23.278;2023-03-15T06:49:58;93596.09;;;14.52;33.01
6435;BME280;3250;42.694;23.278;2023-03-15T06:52:23;93625.41;;;15.21;32.41
6435;BME280;3250;42.694;23.278;2023-03-15T06:54:49;93634.94;;;15.92;30.15
6435;BME280;3250;42.694;23.278;2023-03-15T06:57:14;93630.69;;;16.74;28.80
6435;BME280;3250;42.694;23.278;2023-03-15T06:59:40;93631.38;;;17.66;28.48
6435;BME280;3250;42.694;23.278;2023-03-15T07:02:08;93617.13;;;18.18;28.24
6435;BME280;3250;42.694;23.278;2023-03-15T07:04:37;93602.84;;;18.98;26.71
6435;BME280;3250;42.694;23.278;2023-03-15T07:07:02;93624.88;;;19.63;26.29
6435;BME280;3250;42.694;23.278;2023-03-15T07:09:28;93613.66;;;19.34;26.56
6435;BME280;3250;42.694;23.278;2023-03-15T07:11:53;93614.13;;;19.22;26.04
6435;BME280;3250;42.694;23.278;2023-03-15T07:14:19;93613.69;;;19.47;26.38
6435;BME280;3250;42.694;23.278;2023-03-15T07:16:46;93621.50;;;19.57;26.46
6435;BME280;3250;42.694;23.278;2023-03-15T07:21:37;93602.66;;;19.08;26.35
6435;BME280;3250;42.694;23.278;2023-03-15T07:24:02;93621.97;;;19.32;25.80
6435;BME280;3250;42.694;23.278;2023-03-15T07:26:28;93622.06;;;19.41;27.33
6435;BME280;3250;42.694;23.278;2023-03-15T07:28:55;93633.09;;;19.20;26.38
6435;BME280;3250;42.694;23.278;2023-03-15T07:31:20;93624.59;;;18.54;26.93
6435;BME280;3250;42.694;23.278;2023-03-15T07:33:46;93627.25;;;17.79;27.36
6435;BME280;3250;42.694;23.278;2023-03-15T07:36:13;93605.31;;;17.15;27.83
6435;BME280;3250;42.694;23.278;2023-03-15T07:38:38;93599.59;;;17.03;27.75
6435;BME280;3250;42.694;23.278;2023-03-15T07:41:05;93602.09;;;16.94;28.58
6435;BME280;3250;42.694;23.278;2023-03-15T07:43:31;93606.63;;;16.89;28.75
6435;BME280;3250;42.694;23.278;2023-03-15T07:45:56;93609.53;;;16.92;30.37
6435;BME280;3250;42.694;23.278;2023-03-15T07:48:21;93600.94;;;16.72;29.00
6435;BME280;3250;42.694;23.278;2023-03-15T07:50:47;93606.97;;;16.82;30.91
6435;BME280;3250;42.694;23.278;2023-03-15T07:53:12;93606.09;;;16.92;29.42
6435;BME280;3250;42.694;23.278;2023-03-15T07:55:38;93599.53;;;16.84;28.57
6435;BME280;3250;42.694;23.278;2023-03-15T07:58:03;93581.03;;;16.69;29.26
6435;BME280;3250;42.694;23.278;2023-03-15T08:00:30;93595.31;;;16.78;28.71
6435;BME280;3250;42.694;23.278;2023-03-15T08:02:56;93578.81;;;16.13;29.66
6435;BME280;3250;42.694;23.278;2023-03-15T08:05:22;93595.34;;;16.00;30.30
6435;BME280;3250;42.694;23.278;2023-03-15T08:07:48;93583.63;;;15.62;29.95
6435;BME280;3250;42.694;23.278;2023-03-15T08:10:14;93601.63;;;15.70;30.72
6435;BME280;3250;42.694;23.278;2023-03-15T08:12:40;93607.53;;;15.47;30.96
6435;BME280;3250;42.694;23.278;2023-03-15T08:15:14;93593.19;;;15.48;30.55
6435;BME280;3250;42.694;23.278;2023-03-15T08:17:42;93557.50;;;15.25;30.70
6435;BME280;3250;42.694;23.278;2023-03-15T08:20:10;93540.09;;;15.04;31.49
6435;BME280;3250;42.694;23.278;2023-03-15T08:22:36;93575.81;;;15.17;32.10
6435;BME280;3250;42.694;23.278;2023-03-15T08:25:03;93580.31;;;15.26;32.26
6435;BME280;3250;42.694;23.278;2023-03-15T08:27:29;93557.94;;;15.47;33.23
6435;BME280;3250;42.694;23.278;2023-03-15T08:29:55;93582.22;;;15.80;31.54
6435;BME280;3250;42.694;23.278;2023-03-15T08:32:20;93556.84;;;15.64;30.73
6435;BME280;3250;42.694;23.278;2023-03-15T08:34:46;93578.28;;;15.67;32.08
6435;BME280;3250;42.694;23.278;2023-03-15T08:37:12;93573.72;;;15.78;31.52
6435;BME280;3250;42.694;23.278;2023-03-15T08:39:38;93546.22;;;15.64;30.77
6435;BME280;3250;42.694;23.278;2023-03-15T08:42:04;93566.44;;;15.44;31.21
6435;BME280;3250;42.694;23.278;2023-03-15T08:44:30;93561.66;;;15.41;31.74
6435;BME280;3250;42.694;23.278;2023-03-15T08:46:57;93566.44;;;15.44;31.09
6435;BME280;3250;42.694;23.278;2023-03-15T08:49:22;93551.28;;;15.50;31.82
6435;BME280;3250;42.694;23.278;2023-03-15T08:51:48;93529.28;;;15.55;32.16
6435;BME280;3250;42.694;23.278;2023-03-15T08:54:13;93563.38;;;15.76;31.74
6435;BME280;3250;42.694;23.278;2023-03-15T08:56:40;93565.25;;;15.76;31.05
6435;BME280;3250;42.694;23.278;2023-03-15T08:59:06;93572.25;;;15.57;31.77
6435;BME280;3250;42.694;23.278;2023-03-15T09:01:32;93572.38;;;15.21;31.87
6435;BME280;3250;42.694;23.278;2023-03-15T09:03:59;93569.81;;;14.86;32.71
6435;BME280;3250;42.694;23.278;2023-03-15T09:06:25;93519.28;;;14.36;33.96
6435;BME280;3250;42.694;23.278;2023-03-15T09:08:51;93532.00;;;14.45;33.33
6435;BME280;3250;42.694;23.278;2023-03-15T09:11:18;93560.06;;;14.56;33.86
6435;BME280;3250;42.694;23.278;2023-03-15T09:13:43;93529.34;;;14.19;34.35
6435;BME280;3250;42.694;23.278;2023-03-15T09:16:09;93514.28;;;14.00;34.03
6435;BME280;3250;42.694;23.278;2023-03-15T09:18:34;93561.91;;;14.00;34.21
6435;BME280;3250;42.694;23.278;2023-03-15T09:20:59;93550.19;;;13.55;34.94
6435;BME280;3250;42.694;23.278;2023-03-15T09:23:25;93556.94;;;13.15;36.16
6435;BME280;3250;42.694;23.278;2023-03-15T09:25:51;93563.50;;;13.13;36.40
6435;BME280;3250;42.694;23.278;2023-03-15T09:28:17;93548.06;;;12.90;37.63
6435;BME280;3250;42.694;23.278;2023-03-15T09:30:42;93516.91;;;12.39;38.16
6435;BME280;3250;42.694;23.278;2023-03-15T09:33:07;93563.72;;;12.54;37.44
6435;BME280;3250;42.694;23.278;2023-03-15T09:35:33;93531.06;;;12.23;37.89
6435;BME280;3250;42.694;23.278;2023-03-15T09:37:59;93547.13;;;12.59;38.04
6435;BME280;3250;42.694;23.278;2023-03-15T09:48:26;93539.09;;;13.48;36.41
6435;BME280;3250;42.694;23.278;2023-03-15T09:53:58;93524.19;;;13.16;36.54
6435;BME280;3250;42.694;23.278;2023-03-15T09:57:09;93525.69;;;13.07;36.97
6435;BME280;3250;42.694;23.278;2023-03-15T09:59:41;93526.47;;;13.03;37.05
6435;BME280;3250;42.694;23.278;2023-03-15T10:02:18;93514.22;;;12.81;37.34
6435;BME280;3250;42.694;23.278;2023-03-15T10:04:46;93517.47;;;12.46;38.46
6435;BME280;3250;42.694;23.278;2023-03-15T10:07:14;93533.94;;;12.59;38.18
6435;BME280;3250;42.694;23.278;2023-03-15T10:09:41;93539.69;;;12.51;37.91
6435;BME280;3250;42.694;23.278;2023-03-15T10:12:25;93540.16;;;12.42;38.40
6435;BME280;3250;42.694;23.278;2023-03-15T10:17:29;93517.53;;;12.57;38.86
6435;BME280;3250;42.694;23.278;2023-03-15T10:20:00;93537.75;;;12.83;38.83
6435;BME280;3250;42.694;23.278;2023-03-15T10:22:33;93537.00;;;12.88;38.24
6435;BME280;3250;42.694;23.278;2023-03-15T10:27:40;93524.75;;;13.29;37.52
6435;BME280;3250;42.694;23.278;2023-03-15T10:30:24;93527.97;;;13.51;38.57
6435;BME280;3250;42.694;23.278;2023-03-15T10:32:59;93517.69;;;13.59;37.47
6435;BME280;3250;42.694;23.278;2023-03-15T10:35:26;93484.59;;;13.32;36.90
6435;BME280;3250;42.694;23.278;2023-03-15T10:37:52;93507.31;;;13.23;37.33
6435;BME280;3250;42.694;23.278;2023-03-15T10:40:49;93527.09;;;13.20;37.34
6435;BME280;3250;42.694;23.278;2023-03-15T10:45:58;93529.88;;;12.88;37.95
6435;BME280;3250;42.694;23.278;2023-03-15T10:48:35;93534.06;;;12.84;37.99
6435;BME280;3250;42.694;23.278;2023-03-15T10:51:19;93525.03;;;12.75;38.16
6435;BME280;3250;42.694;23.278;2023-03-15T10:54:02;93523.81;;;12.45;38.25
6435;BME280;3250;42.694;23.278;2023-03-15T10:56:37;93496.63;;;12.03;38.92
6435;BME280;3250;42.694;23.278;2023-03-15T10:59:15;93527.88;;;12.21;39.18
6435;BME280;3250;42.694;23.278;2023-03-15T11:01:41;93525.03;;;12.28;39.16
6435;BME280;3250;42.694;23.278;2023-03-15T11:06:43;93505.50;;;12.29;40.10
6435;BME280;3250;42.694;23.278;2023-03-15T11:09:12;93490.75;;;12.33;38.75
6435;BME280;3250;42.694;23.278;2023-03-15T11:14:23;93517.78;;;12.50;39.17
6435;BME280;3250;42.694;23.278;2023-03-15T11:16:55;93511.50;;;12.61;38.76
6435;BME280;3250;42.694;23.278;2023-03-15T11:19:24;93495.13;;;12.64;39.41
6435;BME280;3250;42.694;23.278;2023-03-15T11:21:51;93506.28;;;12.76;38.64
6435;BME280;3250;42.694;23.278;2023-03-15T11:24:23;93507.94;;;12.88;38.23
6435;BME280;3250;42.694;23.278;2023-03-15T11:26:51;93502.06;;;12.80;38.07
6435;BME280;3250;42.694;23.278;2023-03-15T11:29:30;93517.47;;;12.94;37.79
6435;BME280;3250;42.694;23.278;2023-03-15T11:31:58;93520.06;;;12.89;37.89
6435;BME280;3250;42.694;23.278;2023-03-15T11:34:45;93522.41;;;12.80;38.80
6435;BME280;3250;42.694;23.278;2023-03-15T11:37:21;93510.59;;;12.45;41.37
6435;BME280;3250;42.694;23.278;2023-03-15T11:39:56;93473.63;;;12.35;43.71
6435;BME280;3250;42.694;23.278;2023-03-15T11:42:31;93458.41;;;12.05;45.79
6435;BME280;3250;42.694;23.278;2023-03-15T11:45:02;93503.63;;;12.24;47.88
6435;BME280;3250;42.694;23.278;2023-03-15T11:47:41;93498.09;;;11.89;49.52
6435;BME280;3250;42.694;23.278;2023-03-15T11:50:14;93505.53;;;11.65;50.65
6435;BME280;3250;42.694;23.278;2023-03-15T11:52:40;93497.28;;;11.83;50.97
6435;BME280;3250;42.694;23.278;2023-03-15T11:55:15;93498.25;;;12.09;50.88
6435;BME280;3250;42.694;23.278;2023-03-15T11:57:47;93460.25;;;12.05;50.42
6435;BME280;3250;42.694;23.278;2023-03-15T12:01:05;93498.69;;;12.38;50.22
6435;BME280;3250;42.694;23.278;2023-03-15T12:03:32;93494.78;;;12.45;48.73
6435;BME280;3250;42.694;23.278;2023-03-15T12:06:11;93491.06;;;12.36;48.73
6435;BME280;3250;42.694;23.278;2023-03-15T12:14:20;93485.16;;;11.28;51.24
6435;BME280;3250;42.694;23.278;2023-03-15T12:16:44;93468.00;;;11.26;52.84
6435;BME280;3250;42.694;23.278;2023-03-15T12:19:15;93476.75;;;11.58;53.27
6435;BME280;3250;42.694;23.278;2023-03-15T12:21:54;93419.19;;;11.45;51.76
6435;BME280;3250;42.694;23.278;2023-03-15T12:24:26;93470.44;;;11.91;51.27
6435;BME280;3250;42.694;23.278;2023-03-15T12:27:15;93472.88;;;12.03;50.52
6435;BME280;3250;42.694;23.278;2023-03-15T12:29:43;93472.69;;;12.09;50.59
6435;BME280;3250;42.694;23.278;2023-03-15T12:32:19;93471.34;;;12.12;51.10
6435;BME280;3250;42.694;23.278;2023-03-15T12:34:50;93479.56;;;12.16;50.47
6435;BME280;3250;42.694;23.278;2023-03-15T12:55:36;93464.06;;;11.87;46.74
6435;BME280;3250;42.694;23.278;2023-03-15T12:58:02;93431.25;;;11.73;46.78
6435;BME280;3250;42.694;23.278;2023-03-15T13:00:29;93454.91;;;11.68;47.56
6435;BME280;3250;42.694;23.278;2023-03-15T13:03:30;93457.75;;;11.56;47.90
6435;BME280;3250;42.694;23.278;2023-03-15T13:09:38;93459.47;;;11.41;47.07
6435;BME280;3250;42.694;23.278;2023-03-15T13:19:54;93442.97;;;11.55;46.98
6435;BME280;3250;42.694;23.278;2023-03-15T13:22:49;93440.63;;;11.59;46.93
6435;BME280;3250;42.694;23.278;2023-03-15T13:26:20;93438.28;;;11.62;47.15
6435;BME280;3250;42.694;23.278;2023-03-15T13:28:37;93448.88;;;11.67;46.84
6435;BME280;3250;42.694;23.278;2023-03-15T13:31:12;93459.06;;;11.59;47.45
6435;BME280;3250;42.694;23.278;2023-03-15T13:33:42;93463.63;;;11.68;47.48
6435;BME280;3250;42.694;23.278;2023-03-15T13:36:13;93458.41;;;11.73;47.66
6435;BME280;3250;42.694;23.278;2023-03-15T13:38:41;93455.34;;;11.82;47.58
6435;BME280;3250;42.694;23.278;2023-03-15T13:41:29;93464.66;;;11.62;47.95
6435;BME280;3250;42.694;23.278;2023-03-15T13:44:00;93458.22;;;11.48;48.15
6435;BME280;3250;42.694;23.278;2023-03-15T13:46:29;93448.16;;;11.45;48.58
6435;BME280;3250;42.694;23.278;2023-03-15T13:48:59;93456.25;;;11.65;48.92
6435;BME280;3250;42.694;23.278;2023-03-15T13:51:25;93458.09;;;11.70;48.69
6435;BME280;3250;42.694;23.278;2023-03-15T13:54:00;93468.69;;;11.43;49.38
6435;BME280;3250;42.694;23.278;2023-03-15T13:56:30;93459.75;;;11.44;50.16
6435;BME280;3250;42.694;23.278;2023-03-15T13:58:56;93464.59;;;11.57;50.36
6435;BME280;3250;42.694;23.278;2023-03-15T14:01:23;93451.84;;;11.44;50.88
6435;BME280;3250;42.694;23.278;2023-03-15T14:04:03;93475.88;;;11.21;51.75
6435;BME280;3250;42.694;23.278;2023-03-15T14:06:30;93444.03;;;11.01;52.36
6435;BME280;3250;42.694;23.278;2023-03-15T14:09:01;93472.91;;;10.90;54.10
6435;BME280;3250;42.694;23.278;2023-03-15T14:11:33;93472.28;;;10.83;54.74
6435;BME280;3250;42.694;23.278;2023-03-15T14:14:02;93468.75;;;10.94;54.98
6435;BME280;3250;42.694;23.278;2023-03-15T14:16:43;93468.31;;;11.03;55.10
6435;BME280;3250;42.694;23.278;2023-03-15T14:19:31;93467.25;;;11.04;54.56
6435;BME280;3250;42.694;23.278;2023-03-15T14:22:04;93458.66;;;10.86;55.04
6435;BME280;3250;42.694;23.278;2023-03-15T14:24:39;93440.66;;;10.78;55.06
6435;BME280;3250;42.694;23.278;2023-03-15T14:27:08;93470.38;;;11.01;55.01
6435;BME280;3250;42.694;23.278;2023-03-15T14:29:53;93460.81;;;10.89;55.12
6435;BME280;3250;42.694;23.278;2023-03-15T14:32:34;93454.97;;;10.66;56.14
6435;BME280;3250;42.694;23.278;2023-03-15T14:40:21;93457.19;;;10.52;58.10
6435;BME280;3250;42.694;23.278;2023-03-15T14:42:48;93441.78;;;10.61;58.37